Mulga, Alabama
Current Conditions -  °F | °C
As of 3:53 PM on Monday 20 Oct 2014 (Local Time) from KBHM Reporting Station
Scattered Clouds Scattered Clouds  
Wind Chill: 23°   Ceiling: Unl
Heat Index: 23°   Visibility: 10mi
Dew Point:   Wind: 7mph
Humidity: 40%   Direction: 280°W
Pressure: 30.02"   Gusts: NA
Location:  33.55°N, 86.97°W
Report Text: KBHM 202053Z 28006KT 10SM FEW060 SCT250 23/09 A3002 RMK AO2 SLP161 T02330089 56019
Loading
Personal Weather Stations






























Interactive Weather Map
Tropical Storm Tracking
New forecast layout! Learn more

10-Day Weather Forecast

Advertisements
Track Severe Weather on mobile